createdAt,value
2018-11-26T00:01:45.865Z,61.53
2018-11-26T00:04:14.286Z,61.55
2018-11-26T00:06:42.744Z,64.45
2018-11-26T00:09:11.988Z,63.21
2018-11-26T00:11:40.471Z,62.73
2018-11-26T00:14:08.836Z,62.37
2018-11-26T00:16:37.211Z,63.08
2018-11-26T00:19:05.861Z,61.20
2018-11-26T00:21:34.297Z,60.97
2018-11-26T00:24:02.667Z,62.08
2018-11-26T00:26:31.050Z,61.37
2018-11-26T00:28:59.425Z,63.07
2018-11-26T00:31:27.867Z,61.85
2018-11-26T00:33:56.323Z,61.58
2018-11-26T00:36:24.731Z,60.01
2018-11-26T00:38:53.135Z,61.23
2018-11-26T00:41:21.510Z,61.75
2018-11-26T00:43:49.964Z,62.42
2018-11-26T00:46:18.380Z,61.75
2018-11-26T00:48:46.768Z,60.90
2018-11-26T00:51:15.211Z,66.27
2018-11-26T00:53:43.613Z,65.76
2018-11-26T00:56:11.991Z,63.25
2018-11-26T00:58:40.394Z,63.89
2018-11-26T01:01:08.841Z,63.58
2018-11-26T01:03:37.210Z,68.07
2018-11-26T01:06:05.848Z,65.21
2018-11-26T01:08:34.272Z,65.26
2018-11-26T01:11:02.712Z,62.31
2018-11-26T01:13:31.169Z,62.22
2018-11-26T01:15:59.559Z,62.61
2018-11-26T01:18:27.987Z,61.18
2018-11-26T01:20:56.397Z,61.24
2018-11-26T01:23:24.819Z,65.39
2018-11-26T01:25:53.169Z,62.60
2018-11-26T01:28:21.553Z,64.82
2018-11-26T01:30:49.980Z,63.38
2018-11-26T01:33:18.413Z,64.23
2018-11-26T01:35:46.825Z,65.75
2018-11-26T01:38:15.235Z,65.50
2018-11-26T01:40:48.609Z,67.59
2018-11-26T01:43:17.136Z,61.88
2018-11-26T01:45:45.549Z,62.73
2018-11-26T01:48:13.952Z,62.09
2018-11-26T01:50:42.411Z,62.11
2018-11-26T01:53:10.788Z,62.84
2018-11-26T01:55:39.197Z,65.30
2018-11-26T01:58:07.583Z,63.13
2018-11-26T02:00:36.072Z,63.29
2018-11-26T02:03:04.469Z,62.63
2018-11-26T02:05:32.929Z,65.75
2018-11-26T02:08:01.355Z,63.71
2018-11-26T02:10:29.751Z,67.67
2018-11-26T02:12:58.180Z,68.62
2018-11-26T02:15:40.479Z,66.15
2018-11-26T02:18:09.199Z,65.45
2018-11-26T02:20:37.555Z,65.13
2018-11-26T02:23:05.960Z,67.55
2018-11-26T02:25:34.329Z,64.77
2018-11-26T02:28:02.617Z,64.05
2018-11-26T02:30:31.000Z,62.55
2018-11-26T02:32:59.374Z,60.94
2018-11-26T02:35:27.732Z,64.30
2018-11-26T02:37:56.037Z,63.05
2018-11-26T02:40:28.870Z,60.84
2018-11-26T02:42:57.196Z,67.96
2018-11-26T02:45:25.562Z,64.77
2018-11-26T02:47:53.832Z,62.65
2018-11-26T02:50:22.149Z,64.02
2018-11-26T02:52:50.458Z,61.06
2018-11-26T02:55:18.814Z,58.79
2018-11-26T02:57:47.135Z,59.12
2018-11-26T03:00:15.468Z,58.14
2018-11-26T03:02:43.785Z,60.78
2018-11-26T03:05:12.902Z,65.31
2018-11-26T03:07:41.320Z,61.69
2018-11-26T03:10:10.300Z,62.07
2018-11-26T03:12:39.116Z,60.08
2018-11-26T03:15:11.593Z,60.19
2018-11-26T03:17:40.193Z,59.01
2018-11-26T03:20:10.159Z,60.58
2018-11-26T03:22:38.668Z,63.04
2018-11-26T03:25:08.537Z,62.84
2018-11-26T03:27:36.917Z,60.68
2018-11-26T03:30:08.756Z,61.84
2018-11-26T03:32:37.180Z,59.67
2018-11-26T03:35:07.141Z,61.28
2018-11-26T03:37:35.556Z,62.62
2018-11-26T03:40:05.720Z,61.20
2018-11-26T03:42:34.141Z,62.22
2018-11-26T03:45:02.528Z,63.24
2018-11-26T03:47:30.990Z,63.04
2018-11-26T03:49:59.387Z,64.81
2018-11-26T03:52:27.791Z,64.36
2018-11-26T03:54:56.193Z,61.45
2018-11-26T03:57:24.835Z,61.45
2018-11-26T03:59:53.237Z,61.86
2018-11-26T04:02:21.687Z,61.14
2018-11-26T04:04:50.091Z,62.61
2018-11-26T04:07:18.465Z,61.65
2018-11-26T04:09:46.880Z,65.77
2018-11-26T04:12:15.371Z,69.12
2018-11-26T04:14:43.782Z,63.40
2018-11-26T04:17:12.608Z,62.50
2018-11-26T04:19:40.976Z,67.80
2018-11-26T04:22:09.418Z,63.83
2018-11-26T04:24:37.794Z,62.74
2018-11-26T04:27:06.476Z,65.52
2018-11-26T04:29:34.915Z,63.83
2018-11-26T04:32:03.240Z,66.04
2018-11-26T04:42:52.619Z,65.81
2018-11-26T04:45:21.078Z,62.45
2018-11-26T04:47:49.400Z,65.12
2018-11-26T04:50:17.770Z,64.12
2018-11-26T04:52:46.133Z,64.57
2018-11-26T04:55:14.452Z,64.76
2018-11-26T04:57:43.039Z,63.57
2018-11-26T05:00:12.464Z,63.12
2018-11-26T05:02:40.843Z,63.48
2018-11-26T05:05:10.216Z,64.56
2018-11-26T05:07:38.603Z,63.64
2018-11-26T05:10:08.535Z,63.57
2018-11-26T05:12:36.845Z,66.16
2018-11-26T05:15:05.916Z,63.74
2018-11-26T05:17:34.210Z,64.83
2018-11-26T05:20:02.524Z,64.17
2018-11-26T05:22:30.864Z,67.03
2018-11-26T05:24:59.193Z,66.86
2018-11-26T05:27:27.516Z,66.27
2018-11-26T05:29:55.812Z,65.34
2018-11-26T05:32:24.143Z,64.40
2018-11-26T05:34:52.459Z,63.49
2018-11-26T05:37:20.784Z,63.58
2018-11-26T05:39:49.104Z,64.08
2018-11-26T05:42:17.460Z,65.95
2018-11-26T05:44:45.780Z,64.25
2018-11-26T05:47:14.209Z,62.63
2018-11-26T05:49:42.693Z,62.87
2018-11-26T05:52:11.033Z,67.06
2018-11-26T05:54:39.366Z,66.59
2018-11-26T05:57:07.688Z,65.39
2018-11-26T05:59:36.053Z,63.57
2018-11-26T06:02:04.531Z,63.20
2018-11-26T06:04:33.004Z,62.80
2018-11-26T06:07:01.465Z,69.46
2018-11-26T06:09:29.979Z,72.03
2018-11-26T06:11:58.381Z,67.16
2018-11-26T06:14:26.903Z,65.65
2018-11-26T06:16:55.218Z,63.82
2018-11-26T06:19:23.564Z,67.45
2018-11-26T06:21:52.000Z,67.33
2018-11-26T06:24:20.403Z,66.02
2018-11-26T06:26:50.446Z,70.02
2018-11-26T06:29:18.934Z,67.63
2018-11-26T06:31:47.303Z,65.14
2018-11-26T06:34:15.783Z,65.05
2018-11-26T06:36:44.395Z,69.67
2018-11-26T06:39:12.760Z,70.60
2018-11-26T06:41:41.200Z,70.20
2018-11-26T06:44:09.659Z,65.32
2018-11-26T06:46:38.122Z,69.21
2018-11-26T06:49:06.904Z,70.36
2018-11-26T06:51:35.393Z,70.90
2018-11-26T06:54:03.855Z,65.36
2018-11-26T06:56:32.279Z,65.82
2018-11-26T06:59:00.747Z,64.84
2018-11-26T07:01:29.191Z,70.86
2018-11-26T07:03:57.758Z,70.19
2018-11-26T07:06:26.192Z,66.97
2018-11-26T07:08:54.666Z,66.13
2018-11-26T07:11:23.117Z,64.56
2018-11-26T07:13:51.605Z,64.88
2018-11-26T07:16:20.020Z,64.99
2018-11-26T07:18:48.467Z,66.71
2018-11-26T07:21:16.933Z,66.28
2018-11-26T07:23:45.377Z,65.10
2018-11-26T07:26:13.895Z,69.82
2018-11-26T07:28:42.338Z,70.12
2018-11-26T07:31:10.817Z,68.71
2018-11-26T07:33:39.224Z,67.51
2018-11-26T07:36:11.461Z,69.70
2018-11-26T07:38:36.183Z,68.05
2018-11-26T07:41:05.716Z,68.97
2018-11-26T07:43:35.318Z,66.93
2018-11-26T07:46:04.946Z,66.14
2018-11-26T07:48:34.649Z,68.37
2018-11-26T07:51:04.007Z,67.83
2018-11-26T07:53:33.457Z,67.13
2018-11-26T07:56:03.004Z,68.22
2018-11-26T07:58:32.380Z,68.11
2018-11-26T08:01:01.430Z,67.22
2018-11-26T08:03:30.795Z,66.98
2018-11-26T08:06:00.177Z,64.04
2018-11-26T08:08:29.611Z,68.56
2018-11-26T08:10:58.874Z,68.42
2018-11-26T08:13:28.372Z,65.34
2018-11-26T08:15:57.770Z,64.74
2018-11-26T08:18:26.267Z,64.01
2018-11-26T08:20:54.688Z,64.34
2018-11-26T08:23:23.131Z,62.85
2018-11-26T08:25:52.770Z,64.76
2018-11-26T08:28:21.790Z,65.86
2018-11-26T08:30:49.808Z,65.38
2018-11-26T08:33:18.271Z,63.69
2018-11-26T08:35:46.706Z,65.29
2018-11-26T08:38:20.339Z,66.15
2018-11-26T08:40:53.660Z,63.85
2018-11-26T08:43:27.338Z,66.13
2018-11-26T08:45:57.672Z,64.70
2018-11-26T08:48:26.283Z,64.46
2018-11-26T08:50:56.251Z,66.72
2018-11-26T08:53:24.579Z,64.05
2018-11-26T08:55:53.147Z,66.25
2018-11-26T08:58:21.465Z,65.67
2018-11-26T09:00:54.976Z,65.05
2018-11-26T09:03:28.334Z,67.08
2018-11-26T09:06:02.448Z,66.97
2018-11-26T09:08:32.892Z,64.79
2018-11-26T09:11:02.820Z,64.61
2018-11-26T09:13:31.329Z,65.39
2018-11-26T09:15:59.749Z,63.98
2018-11-26T09:18:28.222Z,66.16
2018-11-26T09:20:56.634Z,65.74
2018-11-26T09:23:25.097Z,68.56
2018-11-26T09:25:53.520Z,66.55
2018-11-26T09:28:21.972Z,66.33
2018-11-26T09:30:50.532Z,68.17
2018-11-26T09:33:20.857Z,65.27
2018-11-26T09:35:49.265Z,62.12
2018-11-26T09:38:17.637Z,64.40
2018-11-26T09:40:45.969Z,63.57
2018-11-26T09:43:14.327Z,65.40
2018-11-26T09:45:42.744Z,64.96
2018-11-26T09:48:11.200Z,62.59
2018-11-26T09:50:39.688Z,63.32
2018-11-26T09:53:08.126Z,65.97
2018-11-26T09:55:38.185Z,63.91
2018-11-26T09:58:06.552Z,64.55
2018-11-26T10:00:34.896Z,63.27
2018-11-26T10:03:03.235Z,62.04
2018-11-26T10:05:31.577Z,65.05
2018-11-26T10:07:59.867Z,63.37
2018-11-26T10:10:28.257Z,62.20
2018-11-26T10:12:56.731Z,65.80
2018-11-26T10:15:26.244Z,63.59
2018-11-26T10:17:54.643Z,64.32
2018-11-26T10:20:23.097Z,64.55
2018-11-26T10:22:52.419Z,62.28
2018-11-26T10:25:21.631Z,64.86
2018-11-26T10:27:50.076Z,63.96
2018-11-26T10:30:19.858Z,62.33
2018-11-26T10:32:49.089Z,64.27
2018-11-26T10:35:18.479Z,63.09
2018-11-26T10:37:46.949Z,63.82
2018-11-26T10:40:17.267Z,63.79
2018-11-26T10:42:45.739Z,62.01
2018-11-26T10:45:20.289Z,61.10
2018-11-26T10:47:48.855Z,60.40
2018-11-26T10:50:18.506Z,61.98
2018-11-26T10:52:48.215Z,59.65
2018-11-26T10:55:21.636Z,60.52
2018-11-26T10:57:50.159Z,60.22
2018-11-26T11:02:27.150Z,60.47
2018-11-26T11:04:55.629Z,59.64
2018-11-26T11:07:24.710Z,59.26
2018-11-26T11:09:53.163Z,58.84
2018-11-26T11:12:21.656Z,59.89
2018-11-26T11:14:50.159Z,60.10
2018-11-26T11:17:18.659Z,58.87
2018-11-26T11:19:47.601Z,60.38
2018-11-26T11:22:16.103Z,61.78
2018-11-26T11:24:44.554Z,60.84
2018-11-26T11:27:13.737Z,61.06
2018-11-26T11:29:46.045Z,61.84
2018-11-26T11:32:14.522Z,60.03
2018-11-26T11:34:43.045Z,61.37
2018-11-26T11:37:17.587Z,60.65
2018-11-26T11:39:46.156Z,59.21
2018-11-26T11:42:19.568Z,60.73
2018-11-26T11:44:48.092Z,59.97
2018-11-26T11:49:55.184Z,60.71
2018-11-26T11:52:24.537Z,59.48
2018-11-26T11:54:59.562Z,59.15
2018-11-26T11:57:28.064Z,58.97
2018-11-26T11:59:56.510Z,58.86
2018-11-26T12:02:29.168Z,58.08
2018-11-26T12:04:57.634Z,58.46
2018-11-26T12:07:26.081Z,59.03
2018-11-26T12:09:54.570Z,60.19
2018-11-26T12:12:23.092Z,60.26
2018-11-26T12:14:51.654Z,61.67
2018-11-26T12:17:20.132Z,62.75
2018-11-26T12:19:48.560Z,61.60
2018-11-26T12:22:26.050Z,60.46
2018-11-26T12:24:54.506Z,61.99
2018-11-26T12:27:30.372Z,60.76
2018-11-26T12:30:03.200Z,62.10
2018-11-26T12:32:33.304Z,61.13
2018-11-26T12:35:13.179Z,60.05
2018-11-26T12:37:41.926Z,62.61
2018-11-26T12:40:12.460Z,61.26
2018-11-26T12:42:41.996Z,60.81
2018-11-26T12:45:20.372Z,62.88
2018-11-26T12:47:50.403Z,61.10
2018-11-26T12:50:22.143Z,60.34
2018-11-26T12:52:51.267Z,59.68
2018-11-26T12:55:21.176Z,62.94
2018-11-26T12:57:51.852Z,61.94
2018-11-26T13:00:22.886Z,63.04
2018-11-26T13:02:58.695Z,61.84
2018-11-26T13:05:29.847Z,61.98
2018-11-26T13:08:03.836Z,62.34
2018-11-26T13:10:37.120Z,61.25
2018-11-26T13:13:10.573Z,58.75
2018-11-26T13:15:42.607Z,58.85
2018-11-26T13:18:11.879Z,59.20
2018-11-26T13:20:50.409Z,60.96
2018-11-26T13:23:19.436Z,61.31
2018-11-26T13:25:48.135Z,60.86
2018-11-26T13:28:17.500Z,62.45
2018-11-26T13:30:48.544Z,64.30
2018-11-26T13:33:18.194Z,63.85
2018-11-26T13:35:48.128Z,63.74
2018-11-26T13:38:17.204Z,62.62
2018-11-26T13:40:45.549Z,61.51
2018-11-26T13:43:16.027Z,61.41
2018-11-26T13:45:46.876Z,61.26
2018-11-26T13:48:16.820Z,61.68
2018-11-26T13:50:50.126Z,60.35
2018-11-26T13:53:21.634Z,61.62
2018-11-26T13:55:51.568Z,61.47
2018-11-26T13:58:21.137Z,62.13
2018-11-26T14:00:50.108Z,63.89
2018-11-26T14:03:19.415Z,64.15
2018-11-26T14:05:55.204Z,60.18
2018-11-26T14:08:24.485Z,61.95
2018-11-26T14:10:55.605Z,60.55
2018-11-26T14:13:26.857Z,61.11
2018-11-26T14:15:58.978Z,61.67
2018-11-26T14:18:27.116Z,59.62
2018-11-26T14:20:57.028Z,59.46
2018-11-26T14:23:26.377Z,60.01
2018-11-26T14:25:55.409Z,59.86
2018-11-26T14:28:29.735Z,61.05
2018-11-26T14:30:59.432Z,61.26
2018-11-26T14:33:28.372Z,63.43
2018-11-26T14:35:58.960Z,61.81
2018-11-26T14:38:27.536Z,60.05
2018-11-26T14:40:56.046Z,63.00
2018-11-26T14:43:24.388Z,62.30
2018-11-26T14:45:52.804Z,60.69
2018-11-26T14:48:21.236Z,63.12
2018-11-26T14:50:49.667Z,61.09
2018-11-26T14:53:18.186Z,62.83
2018-11-26T14:55:57.882Z,61.23
2018-11-26T14:58:26.497Z,61.23
2018-11-26T15:00:55.012Z,61.63
2018-11-26T15:03:23.474Z,63.67
2018-11-26T15:05:51.901Z,61.42
2018-11-26T15:08:20.349Z,62.21
2018-11-26T15:10:51.055Z,62.10
2018-11-26T15:13:30.758Z,62.84
2018-11-26T15:16:04.680Z,61.46
2018-11-26T15:18:36.897Z,61.16
2018-11-26T15:21:08.843Z,59.87
2018-11-26T15:23:38.015Z,60.59
2018-11-26T15:26:07.829Z,59.82
2018-11-26T15:28:39.363Z,60.09
2018-11-26T15:31:22.641Z,61.54
2018-11-26T15:34:01.721Z,64.63
2018-11-26T15:36:38.445Z,64.82
2018-11-26T15:39:16.367Z,62.89
2018-11-26T15:41:54.836Z,61.37
2018-11-26T15:44:28.405Z,60.98
2018-11-26T15:47:19.387Z,59.42
2018-11-26T15:49:49.507Z,61.39
2018-11-26T15:52:26.572Z,60.66
2018-11-26T15:55:02.782Z,60.26
2018-11-26T15:57:46.105Z,59.34
2018-11-26T16:00:52.228Z,59.38
2018-11-26T16:06:17.536Z,59.03
2018-11-26T16:09:01.396Z,58.65
2018-11-26T16:11:45.430Z,58.92
2018-11-26T16:20:05.753Z,59.22
2018-11-26T16:22:54.194Z,60.04
2018-11-26T16:25:27.771Z,61.06
2018-11-26T16:28:02.938Z,60.80
2018-11-26T16:30:44.711Z,59.28
2018-11-26T16:33:14.997Z,59.37
2018-11-26T16:36:01.890Z,61.26
2018-11-26T16:38:30.268Z,61.74
2018-11-26T16:41:11.125Z,59.81
2018-11-26T16:43:39.754Z,59.64
2018-11-26T16:46:09.385Z,61.64
2018-11-26T16:48:37.853Z,63.62
2018-11-26T16:51:06.514Z,62.09
2018-11-26T16:53:35.221Z,61.79
2018-11-26T16:56:03.773Z,63.14
2018-11-26T16:58:32.221Z,62.09
2018-11-26T17:01:00.658Z,63.27
2018-11-26T17:03:29.266Z,62.27
2018-11-26T17:05:57.782Z,64.00
2018-11-26T17:08:26.972Z,63.63
2018-11-26T17:10:55.532Z,61.33
2018-11-26T17:13:23.997Z,62.61
2018-11-26T17:15:52.486Z,63.53
2018-11-26T17:18:20.972Z,63.60
2018-11-26T17:20:49.482Z,62.19
2018-11-26T17:23:17.919Z,61.82
2018-11-26T17:25:46.348Z,62.98
2018-11-26T17:28:14.753Z,62.46
2018-11-26T17:30:43.292Z,64.04
2018-11-26T17:33:12.488Z,64.58
2018-11-26T17:35:41.026Z,63.34
2018-11-26T17:38:09.510Z,64.26
2018-11-26T17:40:38.797Z,62.02
2018-11-26T17:43:07.904Z,63.27
2018-11-26T17:45:36.445Z,64.92
2018-11-26T17:48:05.232Z,61.13
2018-11-26T17:50:35.352Z,60.96
2018-11-26T17:53:03.910Z,62.23
2018-11-26T17:55:32.338Z,63.65
2018-11-26T17:58:00.776Z,63.62
2018-11-26T18:00:33.393Z,63.96
2018-11-26T18:03:01.846Z,62.49
2018-11-26T18:05:31.103Z,63.13
2018-11-26T18:08:06.108Z,65.62
2018-11-26T18:10:34.622Z,63.73
2018-11-26T18:13:03.174Z,65.13
2018-11-26T18:15:31.553Z,64.09
2018-11-26T18:18:00.019Z,63.32
2018-11-26T18:20:28.457Z,63.96
2018-11-26T18:22:56.922Z,61.97
2018-11-26T18:25:25.542Z,65.39
2018-11-26T18:28:02.657Z,62.37
2018-11-26T18:30:34.581Z,62.30
2018-11-26T18:33:03.170Z,61.83
2018-11-26T18:35:31.578Z,63.08
2018-11-26T18:38:00.013Z,61.63
2018-11-26T18:40:28.440Z,64.04
2018-11-26T18:42:56.829Z,63.43
2018-11-26T18:45:25.280Z,63.22
2018-11-26T18:47:53.698Z,64.29
2018-11-26T18:50:22.341Z,65.54
2018-11-26T18:52:51.200Z,63.73
2018-11-26T18:55:19.945Z,63.32
2018-11-26T18:57:48.361Z,62.19
2018-11-26T19:00:19.039Z,64.63
2018-11-26T19:02:47.455Z,64.29
2018-11-26T19:05:16.558Z,65.87
2018-11-26T19:07:45.056Z,64.21
2018-11-26T19:10:14.783Z,65.01
2018-11-26T19:12:43.955Z,64.31
2018-11-26T19:15:25.757Z,61.36
2018-11-26T19:17:56.289Z,64.75
2018-11-26T19:20:24.733Z,63.47
2018-11-26T19:22:53.208Z,67.29
2018-11-26T19:25:21.643Z,65.66
2018-11-26T19:27:50.056Z,65.82
2018-11-26T19:30:22.861Z,63.38
2018-11-26T19:32:47.114Z,61.91
2018-11-26T19:35:15.999Z,63.46
2018-11-26T19:37:44.425Z,63.09
2018-11-26T19:40:15.736Z,62.18
2018-11-26T19:42:46.130Z,62.47
2018-11-26T19:45:18.684Z,60.73
2018-11-26T19:47:47.197Z,60.60
2018-11-26T19:50:18.679Z,61.53
2018-11-26T19:52:49.092Z,64.97
2018-11-26T19:55:21.701Z,65.40
2018-11-26T19:57:50.377Z,66.08
2018-11-26T20:00:21.793Z,65.02
2018-11-26T20:02:52.860Z,63.03
2018-11-26T20:05:24.284Z,65.51
2018-11-26T20:07:52.739Z,63.36
2018-11-26T20:10:21.170Z,65.77
2018-11-26T20:12:49.618Z,67.05
2018-11-26T20:15:18.323Z,62.74
2018-11-26T20:17:46.798Z,62.09
2018-11-26T20:20:15.353Z,63.03
2018-11-26T20:22:43.823Z,63.41
2018-11-26T20:25:13.377Z,62.67
2018-11-26T20:27:42.176Z,64.33
2018-11-26T20:30:13.942Z,65.05
2018-11-26T20:32:45.942Z,64.38
2018-11-26T20:35:14.376Z,62.19
2018-11-26T20:37:42.861Z,61.81
2018-11-26T20:40:14.362Z,61.27
2018-11-26T20:42:47.541Z,61.32
2018-11-26T20:45:16.357Z,60.97
2018-11-26T20:47:45.600Z,61.41
2018-11-26T20:50:18.540Z,59.10
2018-11-26T20:52:46.949Z,65.09
2018-11-26T20:55:17.615Z,64.38
2018-11-26T20:57:46.477Z,65.36
2018-11-26T21:00:27.891Z,64.20
2018-11-26T21:03:03.405Z,62.63
2018-11-26T21:05:31.828Z,62.67
2018-11-26T21:08:00.242Z,60.68
2018-11-26T21:10:28.656Z,61.50
2018-11-26T21:12:57.129Z,60.35
2018-11-26T21:15:25.570Z,61.31
2018-11-26T21:17:57.713Z,63.08
2018-11-26T21:20:32.732Z,60.97
2018-11-26T21:23:01.250Z,63.79
2018-11-26T21:25:29.724Z,62.87
2018-11-26T21:27:58.247Z,65.40
2018-11-26T21:30:26.761Z,64.26
2018-11-26T21:32:56.354Z,62.49
2018-11-26T21:35:24.796Z,62.57
2018-11-26T21:37:53.994Z,64.04
2018-11-26T21:40:23.831Z,63.04
2018-11-26T21:42:52.350Z,63.15
2018-11-26T21:45:25.246Z,67.33
2018-11-26T21:47:53.771Z,62.38
2018-11-26T21:50:22.270Z,63.07
2018-11-26T21:52:50.652Z,64.10
2018-11-26T21:55:19.136Z,61.28
2018-11-26T21:57:47.630Z,63.46
2018-11-26T22:00:23.674Z,64.22
2018-11-26T22:02:52.373Z,62.81
2018-11-26T22:05:20.968Z,63.32
2018-11-26T22:07:49.402Z,65.00
2018-11-26T22:10:22.978Z,64.38
2018-11-26T22:12:53.513Z,63.41
2018-11-26T22:15:21.983Z,65.58
2018-11-26T22:17:50.446Z,62.29
2018-11-26T22:20:21.126Z,60.13
2018-11-26T22:22:49.520Z,63.89
2018-11-26T22:25:18.858Z,67.20
2018-11-26T22:27:47.454Z,64.44
2018-11-26T22:30:18.101Z,65.45
2018-11-26T22:32:46.549Z,62.50
2018-11-26T22:35:14.961Z,60.39
2018-11-26T22:37:43.380Z,61.49
2018-11-26T22:40:19.662Z,62.07
2018-11-26T22:42:48.078Z,62.77
2018-11-26T22:45:22.361Z,64.81
2018-11-26T22:48:07.312Z,61.45
2018-11-26T22:50:36.562Z,61.03
2018-11-26T22:53:06.625Z,59.30
2018-11-26T22:55:36.140Z,58.86
2018-11-26T22:58:06.857Z,59.66
2018-11-26T23:00:42.897Z,62.39
2018-11-26T23:03:12.688Z,60.70
2018-11-26T23:05:41.004Z,59.18
2018-11-26T23:08:09.322Z,59.61
2018-11-26T23:10:37.671Z,58.62
2018-11-26T23:13:06.364Z,58.87
2018-11-26T23:15:34.725Z,60.83
2018-11-26T23:18:03.073Z,60.34
2018-11-26T23:20:31.387Z,60.83
2018-11-26T23:22:59.708Z,60.29
2018-11-26T23:25:28.064Z,58.76
2018-11-26T23:27:56.411Z,61.89
2018-11-26T23:30:25.771Z,60.31
2018-11-26T23:32:55.312Z,62.08
2018-11-26T23:35:23.601Z,62.08
2018-11-26T23:37:51.981Z,60.43
2018-11-26T23:40:20.275Z,60.43
2018-11-26T23:42:48.588Z,60.96
2018-11-26T23:45:18.864Z,59.71
2018-11-26T23:47:47.242Z,58.96
2018-11-26T23:50:16.229Z,58.28
2018-11-26T23:52:44.839Z,59.51
2018-11-26T23:55:15.273Z,58.61
2018-11-26T23:57:43.801Z,57.49
